WZZ8AX ENBR-EPSC
Flight info
| Callsign | WZZ8AX |
|---|---|
| Flight time | N/A |
| Altitude | 37000 |
| Route | TUXIL DCT ZOL DCT PEVEB DCT AMSEV/N0398F310 DCT POKEN DCT DEMUR DCT OBDEJ |
| Aircraft | A21N/M-SDE1E2E3FGIJ1J4RWXY/LB1 |
Departure
| Time | N/A |
|---|---|
| Airport | Bergen Airport, Flesland (ENBR) |
Arrival
| Time | 2026-04-17 08:42 |
|---|---|
| Airport | Solidarity Szczecin–Goleniów Airport (EPSC) |
| Time | Latitude | Longitude | Altitude | Speed | Heading |
|---|---|---|---|---|---|
| 2026-04-17 07:43 | 58.77519 | 7.05527 | 37289 ft | 454 kts | 142° |
| 2026-04-17 07:43 | 58.72662 | 7.13396 | 37305 ft | 459 kts | 142° |
| 2026-04-17 07:44 | 58.67763 | 7.21294 | 37306 ft | 459 kts | 142° |
| 2026-04-17 07:44 | 58.62898 | 7.29254 | 37315 ft | 460 kts | 142° |
| 2026-04-17 07:45 | 58.58044 | 7.37231 | 37307 ft | 459 kts | 142° |
| 2026-04-17 07:45 | 58.53176 | 7.45161 | 37307 ft | 459 kts | 142° |
| 2026-04-17 07:46 | 58.48306 | 7.53086 | 37305 ft | 460 kts | 142° |
| 2026-04-17 07:46 | 58.43391 | 7.61045 | 37309 ft | 466 kts | 142° |
| 2026-04-17 07:47 | 58.38429 | 7.69052 | 37310 ft | 467 kts | 142° |
| 2026-04-17 07:47 | 58.33462 | 7.77019 | 37319 ft | 467 kts | 142° |
| 2026-04-17 07:48 | 58.28525 | 7.84929 | 37318 ft | 467 kts | 142° |
| 2026-04-17 07:48 | 58.23555 | 7.92854 | 37318 ft | 467 kts | 142° |
| 2026-04-17 07:49 | 58.18575 | 8.00771 | 37317 ft | 467 kts | 142° |
| 2026-04-17 07:49 | 58.13580 | 8.08671 | 37318 ft | 469 kts | 142° |
| 2026-04-17 07:50 | 58.08569 | 8.16567 | 37317 ft | 469 kts | 142° |
| 2026-04-17 07:50 | 58.03556 | 8.24438 | 37316 ft | 469 kts | 142° |
| 2026-04-17 07:51 | 57.98538 | 8.32286 | 37317 ft | 469 kts | 142° |
| 2026-04-17 07:51 | 57.93516 | 8.40110 | 37311 ft | 469 kts | 142° |
| 2026-04-17 07:52 | 57.88491 | 8.47933 | 37301 ft | 469 kts | 142° |
| 2026-04-17 07:52 | 57.83454 | 8.55735 | 37304 ft | 470 kts | 142° |
| 2026-04-17 07:53 | 57.78399 | 8.63529 | 37308 ft | 471 kts | 142° |
| 2026-04-17 07:53 | 57.73341 | 8.71292 | 37301 ft | 471 kts | 143° |
| 2026-04-17 07:54 | 57.68278 | 8.79093 | 37300 ft | 471 kts | 140° |
| 2026-04-17 07:54 | 57.63927 | 8.88293 | 37305 ft | 474 kts | 130° |
| 2026-04-17 07:55 | 57.59766 | 8.97825 | 37289 ft | 474 kts | 131° |
| 2026-04-17 07:55 | 57.55577 | 9.07310 | 37297 ft | 475 kts | 131° |
| 2026-04-17 07:56 | 57.51356 | 9.16820 | 37301 ft | 477 kts | 131° |
| 2026-04-17 07:56 | 57.47130 | 9.26316 | 37301 ft | 477 kts | 131° |
| 2026-04-17 07:57 | 57.42897 | 9.35785 | 37300 ft | 477 kts | 131° |
| 2026-04-17 07:57 | 57.38651 | 9.45239 | 37301 ft | 477 kts | 131° |
| 2026-04-17 07:58 | 57.34400 | 9.54664 | 37306 ft | 477 kts | 131° |
| 2026-04-17 07:58 | 57.30132 | 9.64092 | 37312 ft | 479 kts | 131° |
| 2026-04-17 07:59 | 57.25843 | 9.73531 | 37303 ft | 480 kts | 131° |
| 2026-04-17 07:59 | 57.21535 | 9.82965 | 37317 ft | 480 kts | 131° |
| 2026-04-17 08:00 | 57.17227 | 9.92375 | 37319 ft | 481 kts | 131° |
| 2026-04-17 08:00 | 57.12930 | 10.01720 | 37319 ft | 481 kts | 131° |
| 2026-04-17 08:01 | 57.08575 | 10.11153 | 37325 ft | 480 kts | 131° |
| 2026-04-17 08:01 | 57.04247 | 10.20491 | 37318 ft | 480 kts | 131° |
| 2026-04-17 08:02 | 56.99941 | 10.29733 | 37315 ft | 480 kts | 131° |
| 2026-04-17 08:02 | 56.95600 | 10.39034 | 37310 ft | 480 kts | 131° |
| 2026-04-17 08:03 | 56.91210 | 10.48389 | 37313 ft | 483 kts | 131° |
| 2026-04-17 08:03 | 56.86857 | 10.57638 | 37315 ft | 483 kts | 131° |
| 2026-04-17 08:04 | 56.82476 | 10.66908 | 37316 ft | 480 kts | 131° |
| 2026-04-17 08:04 | 56.78102 | 10.76122 | 37313 ft | 480 kts | 131° |
| 2026-04-17 08:05 | 56.73724 | 10.85317 | 37316 ft | 480 kts | 131° |
| 2026-04-17 08:05 | 56.69333 | 10.94490 | 37316 ft | 480 kts | 131° |
| 2026-04-17 08:06 | 56.64941 | 11.03639 | 37319 ft | 480 kts | 131° |
| 2026-04-17 08:06 | 56.60540 | 11.12774 | 37308 ft | 481 kts | 131° |
| 2026-04-17 08:07 | 56.56118 | 11.21921 | 37322 ft | 483 kts | 131° |
| 2026-04-17 08:07 | 56.51676 | 11.31050 | 37322 ft | 483 kts | 131° |
| 2026-04-17 08:08 | 56.47230 | 11.40154 | 37321 ft | 483 kts | 131° |
| 2026-04-17 08:08 | 56.42786 | 11.49245 | 37322 ft | 483 kts | 132° |
| 2026-04-17 08:09 | 56.38329 | 11.58317 | 37328 ft | 483 kts | 132° |
| 2026-04-17 08:09 | 56.33864 | 11.67371 | 37322 ft | 483 kts | 132° |
| 2026-04-17 08:10 | 56.30116 | 11.74949 | 37325 ft | 483 kts | 132° |
| 2026-04-17 08:10 | 56.25667 | 11.83907 | 37318 ft | 484 kts | 132° |
| 2026-04-17 08:11 | 56.21174 | 11.92923 | 37320 ft | 484 kts | 132° |
| 2026-04-17 08:11 | 56.16669 | 12.01917 | 37323 ft | 484 kts | 132° |
| 2026-04-17 08:12 | 56.12156 | 12.10881 | 37323 ft | 484 kts | 132° |
| 2026-04-17 08:12 | 56.07647 | 12.19848 | 37322 ft | 484 kts | 132° |
| 2026-04-17 08:13 | 56.03124 | 12.28781 | 37321 ft | 484 kts | 132° |
| 2026-04-17 08:14 | 55.96331 | 12.42145 | 37323 ft | 484 kts | 132° |
| 2026-04-17 08:14 | 55.91792 | 12.51034 | 37320 ft | 487 kts | 133° |
| 2026-04-17 08:15 | 55.87234 | 12.59920 | 37331 ft | 484 kts | 132° |
| 2026-04-17 08:15 | 55.82687 | 12.68757 | 37337 ft | 484 kts | 132° |
| 2026-04-17 08:16 | 55.78133 | 12.77570 | 37341 ft | 484 kts | 132° |
| 2026-04-17 08:16 | 55.73572 | 12.86362 | 37341 ft | 484 kts | 132° |
| 2026-04-17 08:17 | 55.68999 | 12.95137 | 37339 ft | 484 kts | 133° |
| 2026-04-17 08:17 | 55.64435 | 13.03876 | 37338 ft | 483 kts | 133° |
| 2026-04-17 08:18 | 55.59875 | 13.12573 | 37323 ft | 483 kts | 133° |
| 2026-04-17 08:18 | 55.55287 | 13.21288 | 37326 ft | 485 kts | 133° |
| 2026-04-17 08:19 | 55.50683 | 13.30006 | 37319 ft | 485 kts | 133° |
| 2026-04-17 08:19 | 55.46072 | 13.38702 | 37318 ft | 485 kts | 133° |
| 2026-04-17 08:20 | 55.41460 | 13.47376 | 37328 ft | 484 kts | 133° |
| 2026-04-17 08:20 | 55.36859 | 13.55985 | 37322 ft | 483 kts | 133° |
| 2026-04-17 08:21 | 55.32254 | 13.64580 | 37324 ft | 483 kts | 133° |
| 2026-04-17 08:21 | 55.27647 | 13.73142 | 37327 ft | 483 kts | 133° |
| 2026-04-17 08:22 | 55.23030 | 13.81694 | 37329 ft | 483 kts | 133° |
| 2026-04-17 08:22 | 55.18439 | 13.90165 | 37341 ft | 482 kts | 133° |
| 2026-04-17 08:23 | 55.13812 | 13.98669 | 36819 ft | 476 kts | 133° |
| 2026-04-17 08:23 | 55.11527 | 14.02857 | 36078 ft | 474 kts | 133° |
| 2026-04-17 08:23 | 55.09288 | 14.06957 | 35341 ft | 472 kts | 133° |
| 2026-04-17 08:23 | 55.07023 | 14.11097 | 34586 ft | 471 kts | 133° |
| 2026-04-17 08:24 | 55.04731 | 14.15278 | 33740 ft | 470 kts | 133° |
| 2026-04-17 08:24 | 55.02477 | 14.19385 | 32916 ft | 469 kts | 133° |
| 2026-04-17 08:24 | 55.00243 | 14.23445 | 32079 ft | 470 kts | 133° |
| 2026-04-17 08:24 | 54.97980 | 14.27551 | 31222 ft | 471 kts | 133° |
| 2026-04-17 08:25 | 54.95702 | 14.31677 | 30383 ft | 472 kts | 133° |
| 2026-04-17 08:25 | 54.93428 | 14.35791 | 29386 ft | 472 kts | 133° |
| 2026-04-17 08:25 | 54.91162 | 14.39885 | 28546 ft | 468 kts | 133° |
| 2026-04-17 08:25 | 54.88909 | 14.43941 | 27806 ft | 463 kts | 133° |
| 2026-04-17 08:26 | 54.86679 | 14.47953 | 27024 ft | 460 kts | 133° |
| 2026-04-17 08:26 | 54.84373 | 14.51782 | 26254 ft | 458 kts | 140° |
| 2026-04-17 08:26 | 54.81692 | 14.54731 | 25510 ft | 456 kts | 154° |
| 2026-04-17 08:26 | 54.78703 | 14.56460 | 24770 ft | 452 kts | 169° |
| 2026-04-17 08:27 | 54.75588 | 14.56999 | 24029 ft | 449 kts | 178° |
| 2026-04-17 08:27 | 54.72479 | 14.57148 | 23211 ft | 446 kts | 179° |
| 2026-04-17 08:27 | 54.69382 | 14.57280 | 22383 ft | 443 kts | 179° |
| 2026-04-17 08:27 | 54.66308 | 14.57445 | 21605 ft | 440 kts | 179° |
| 2026-04-17 08:28 | 54.63263 | 14.57629 | 20847 ft | 436 kts | 178° |
| 2026-04-17 08:28 | 54.60250 | 14.57817 | 20150 ft | 432 kts | 178° |
| 2026-04-17 08:28 | 54.57259 | 14.58010 | 19494 ft | 428 kts | 178° |
| 2026-04-17 08:28 | 54.54298 | 14.58198 | 18855 ft | 425 kts | 178° |
| 2026-04-17 08:29 | 54.51353 | 14.58384 | 18198 ft | 423 kts | 178° |
| 2026-04-17 08:29 | 54.48411 | 14.58575 | 17525 ft | 421 kts | 178° |
| 2026-04-17 08:29 | 54.45505 | 14.58758 | 16852 ft | 415 kts | 178° |
| 2026-04-17 08:29 | 54.42650 | 14.58938 | 16261 ft | 406 kts | 178° |
| 2026-04-17 08:30 | 54.39851 | 14.59119 | 15677 ft | 398 kts | 178° |
| 2026-04-17 08:30 | 54.37107 | 14.59296 | 15109 ft | 391 kts | 178° |
| 2026-04-17 08:30 | 54.34404 | 14.59464 | 14546 ft | 387 kts | 178° |
| 2026-04-17 08:30 | 54.31709 | 14.59634 | 13968 ft | 389 kts | 178° |
| 2026-04-17 08:31 | 54.29006 | 14.59804 | 13343 ft | 389 kts | 178° |
| 2026-04-17 08:31 | 54.26299 | 14.59976 | 12769 ft | 389 kts | 178° |
| 2026-04-17 08:31 | 54.23599 | 14.60149 | 12192 ft | 388 kts | 178° |
| 2026-04-17 08:31 | 54.20901 | 14.60318 | 11599 ft | 386 kts | 178° |
| 2026-04-17 08:32 | 54.18240 | 14.60485 | 11044 ft | 379 kts | 178° |
| 2026-04-17 08:32 | 54.15632 | 14.60649 | 10509 ft | 372 kts | 178° |
| 2026-04-17 08:32 | 54.13070 | 14.60808 | 9915 ft | 365 kts | 178° |
| 2026-04-17 08:32 | 54.10550 | 14.60964 | 9194 ft | 362 kts | 178° |
| 2026-04-17 08:33 | 54.08038 | 14.61120 | 8506 ft | 359 kts | 178° |
| 2026-04-17 08:33 | 54.05563 | 14.61278 | 7926 ft | 353 kts | 178° |
| 2026-04-17 08:33 | 54.03132 | 14.61431 | 7380 ft | 346 kts | 178° |
| 2026-04-17 08:33 | 54.00748 | 14.61577 | 6834 ft | 340 kts | 178° |
| 2026-04-17 08:34 | 53.98408 | 14.61723 | 6377 ft | 331 kts | 178° |
| 2026-04-17 08:34 | 53.96160 | 14.61999 | 6097 ft | 318 kts | 172° |
| 2026-04-17 08:34 | 53.94020 | 14.62539 | 5833 ft | 305 kts | 171° |
| 2026-04-17 08:34 | 53.91965 | 14.63080 | 5607 ft | 293 kts | 171° |
| 2026-04-17 08:35 | 53.89987 | 14.63583 | 5424 ft | 281 kts | 171° |
| 2026-04-17 08:35 | 53.88070 | 14.64064 | 5023 ft | 278 kts | 171° |
| 2026-04-17 08:35 | 53.86156 | 14.64539 | 4557 ft | 277 kts | 171° |
| 2026-04-17 08:35 | 53.84257 | 14.65009 | 4130 ft | 275 kts | 171° |
| 2026-04-17 08:36 | 53.82364 | 14.65477 | 3684 ft | 275 kts | 171° |
| 2026-04-17 08:36 | 53.80505 | 14.65936 | 3316 ft | 271 kts | 171° |
| 2026-04-17 08:36 | 53.78666 | 14.66389 | 3054 ft | 263 kts | 171° |
| 2026-04-17 08:36 | 53.76886 | 14.66828 | 2873 ft | 253 kts | 171° |
| 2026-04-17 08:37 | 53.75180 | 14.67247 | 2701 ft | 243 kts | 171° |
| 2026-04-17 08:37 | 53.73544 | 14.67648 | 2539 ft | 233 kts | 170° |
| 2026-04-17 08:37 | 53.71976 | 14.68035 | 2393 ft | 223 kts | 170° |
| 2026-04-17 08:37 | 53.70477 | 14.68424 | 2233 ft | 213 kts | 167° |
| 2026-04-17 08:38 | 53.69168 | 14.69322 | 2073 ft | 195 kts | 139° |
| 2026-04-17 08:38 | 53.68293 | 14.70890 | 1937 ft | 177 kts | 125° |
| 2026-04-17 08:38 | 53.67544 | 14.72467 | 1710 ft | 166 kts | 127° |
| 2026-04-17 08:38 | 53.66851 | 14.73862 | 1667 ft | 163 kts | 127° |
| 2026-04-17 08:39 | 53.66150 | 14.75238 | 1688 ft | 139 kts | 127° |
| 2026-04-17 08:39 | 53.65534 | 14.76449 | 1687 ft | 135 kts | 127° |
| 2026-04-17 08:39 | 53.64922 | 14.77643 | 1694 ft | 135 kts | 127° |
| 2026-04-17 08:39 | 53.64309 | 14.78840 | 1692 ft | 135 kts | 128° |
| 2026-04-17 08:40 | 53.63699 | 14.80038 | 1575 ft | 134 kts | 127° |
| 2026-04-17 08:40 | 53.63084 | 14.81227 | 1379 ft | 134 kts | 127° |
| 2026-04-17 08:40 | 53.62472 | 14.82406 | 1176 ft | 134 kts | 127° |
| 2026-04-17 08:40 | 53.61872 | 14.83610 | 1000 ft | 134 kts | 126° |
| 2026-04-17 08:41 | 53.61255 | 14.84810 | 793 ft | 136 kts | 128° |
| 2026-04-17 08:41 | 53.60631 | 14.86002 | 641 ft | 135 kts | 127° |
| 2026-04-17 08:41 | 53.60025 | 14.87200 | 423 ft | 134 kts | 129° |
| 2026-04-17 08:41 | 53.59413 | 14.88391 | 254 ft | 135 kts | 129° |
| 2026-04-17 08:42 | 53.58800 | 14.89575 | 149 ft | 129 kts | 127° |
| 2026-04-17 08:42 | 53.58324 | 14.90513 | 158 ft | 77 kts | 130° |
| 2026-04-17 08:42 | 53.58046 | 14.91053 | 167 ft | 50 kts | 130° |
| 2026-04-17 08:42 | 53.57853 | 14.91425 | 170 ft | 16 kts | 131° |
| 2026-04-17 08:43 | 53.57823 | 14.91511 | 171 ft | 10 kts | 103° |
| 2026-04-17 08:43 | 53.57802 | 14.91542 | 171 ft | 5 kts | 236° |
| 2026-04-17 08:43 | 53.57823 | 14.91480 | 171 ft | 9 kts | 313° |
| 2026-04-17 08:43 | 53.57876 | 14.91382 | 170 ft | 14 kts | 311° |
| 2026-04-17 08:44 | 53.57953 | 14.91229 | 169 ft | 20 kts | 310° |
| 2026-04-17 08:44 | 53.58051 | 14.91030 | 166 ft | 25 kts | 310° |
| 2026-04-17 08:44 | 53.58178 | 14.90792 | 161 ft | 29 kts | 311° |
| 2026-04-17 08:44 | 53.58322 | 14.90513 | 158 ft | 34 kts | 310° |
| 2026-04-17 08:45 | 53.58453 | 14.90247 | 156 ft | 38 kts | 309° |
| 2026-04-17 08:45 | 53.58632 | 14.89882 | 148 ft | 42 kts | 320° |
| 2026-04-17 08:45 | 53.58839 | 14.89520 | 144 ft | 43 kts | 312° |
| 2026-04-17 08:45 | 53.59013 | 14.89179 | 141 ft | 11 kts | 309° |
| 2026-04-17 08:46 | 53.59082 | 14.89129 | 139 ft | 13 kts | 32° |
| 2026-04-17 08:46 | 53.59154 | 14.89237 | 137 ft | 13 kts | 44° |
| 2026-04-17 08:46 | 53.59153 | 14.89332 | 138 ft | 8 kts | 130° |
| 2026-04-17 08:46 | 53.59109 | 14.89416 | 139 ft | 11 kts | 113° |
| 2026-04-17 08:47 | 53.59154 | 14.89531 | 139 ft | 14 kts | 41° |
| 2026-04-17 08:47 | 53.59222 | 14.89616 | 139 ft | 9 kts | 359° |
| 2026-04-17 08:47 | 53.59251 | 14.89584 | 139 ft | 1 kts | 310° |
| 2026-04-17 08:47 | 53.59252 | 14.89583 | 139 ft | 0 kts | 310° |